createdAt,value
2019-05-13T00:00:44.570Z,74.50
2019-05-13T00:03:13.830Z,74.60
2019-05-13T00:05:46.801Z,74.60
2019-05-13T00:08:15.876Z,74.60
2019-05-13T00:10:45.509Z,74.50
2019-05-13T00:13:14.941Z,74.60
2019-05-13T00:15:44.472Z,74.60
2019-05-13T00:18:14.389Z,74.50
2019-05-13T00:20:44.283Z,74.60
2019-05-13T00:23:14.342Z,74.60
2019-05-13T00:25:44.401Z,74.70
2019-05-13T00:28:14.394Z,74.80
2019-05-13T00:30:44.527Z,74.80
2019-05-13T00:33:14.080Z,75.00
2019-05-13T00:35:44.234Z,74.90
2019-05-13T00:38:15.849Z,74.90
2019-05-13T00:40:44.669Z,75.00
2019-05-13T00:43:15.269Z,75.00
2019-05-13T00:45:44.600Z,75.00
2019-05-13T00:48:14.302Z,75.20
2019-05-13T00:50:44.353Z,75.10
2019-05-13T00:53:13.644Z,75.10
2019-05-13T00:55:44.563Z,75.10
2019-05-13T00:58:14.185Z,75.10
2019-05-13T01:00:44.375Z,75.10
2019-05-13T01:03:14.155Z,75.10
2019-05-13T01:05:44.439Z,75.10
2019-05-13T01:08:14.508Z,75.10
2019-05-13T01:10:45.110Z,75.10
2019-05-13T01:13:14.202Z,75.10
2019-05-13T01:15:44.345Z,75.40
2019-05-13T01:18:14.231Z,75.40
2019-05-13T01:20:43.851Z,75.40
2019-05-13T01:23:14.180Z,75.40
2019-05-13T01:25:44.450Z,75.50
2019-05-13T01:28:13.670Z,75.50
2019-05-13T01:30:43.827Z,75.60
2019-05-13T01:33:14.384Z,75.60
2019-05-13T01:35:44.524Z,75.80
2019-05-13T01:38:14.345Z,75.90
2019-05-13T01:40:44.116Z,75.90
2019-05-13T01:43:14.337Z,76.00
2019-05-13T01:45:44.334Z,75.90
2019-05-13T01:48:14.224Z,76.00
2019-05-13T01:50:44.513Z,76.10
2019-05-13T01:53:14.484Z,76.20
2019-05-13T01:55:44.437Z,76.20
2019-05-13T01:58:14.552Z,76.10
2019-05-13T02:00:44.405Z,76.20
2019-05-13T02:03:14.700Z,76.20
2019-05-13T02:05:44.357Z,76.20
2019-05-13T02:08:14.485Z,76.40
2019-05-13T02:10:54.937Z,76.40
2019-05-13T02:13:24.970Z,76.50
2019-05-13T02:15:55.431Z,76.50
2019-05-13T02:18:24.905Z,76.60
2019-05-13T02:20:55.336Z,76.60
2019-05-13T02:23:24.553Z,76.60
2019-05-13T02:25:54.688Z,76.60
2019-05-13T02:28:24.884Z,76.70
2019-05-13T02:30:55.883Z,76.70
2019-05-13T02:33:25.096Z,76.70
2019-05-13T02:35:54.156Z,76.70
2019-05-13T02:38:28.876Z,76.90
2019-05-13T02:40:54.317Z,76.80
2019-05-13T02:43:24.437Z,76.80
2019-05-13T02:45:54.415Z,77.20
2019-05-13T02:48:24.307Z,76.90
2019-05-13T02:50:54.288Z,77.00
2019-05-13T02:53:24.442Z,77.10
2019-05-13T02:55:54.076Z,77.00
2019-05-13T02:58:25.398Z,77.20
2019-05-13T03:00:54.323Z,77.00
2019-05-13T03:03:23.852Z,77.10
2019-05-13T03:05:55.241Z,77.30
2019-05-13T03:08:39.146Z,77.30
2019-05-13T03:10:54.965Z,77.20
2019-05-13T03:13:24.279Z,77.40
2019-05-13T03:16:12.847Z,77.20
2019-05-13T03:18:43.560Z,77.40
2019-05-13T03:21:12.826Z,77.40
2019-05-13T03:23:44.026Z,77.40
2019-05-13T03:26:13.930Z,77.50
2019-05-13T03:28:43.821Z,77.50
2019-05-13T03:31:16.562Z,77.50
2019-05-13T03:33:46.779Z,77.60
2019-05-13T03:36:16.811Z,77.60
2019-05-13T03:39:01.733Z,77.70
2019-05-13T03:41:17.825Z,77.50
2019-05-13T03:43:47.610Z,77.80
2019-05-13T03:46:22.445Z,77.80
2019-05-13T03:48:53.444Z,77.80
2019-05-13T03:51:23.080Z,77.80
2019-05-13T03:53:53.435Z,77.90
2019-05-13T03:56:23.868Z,77.90
2019-05-13T03:58:54.019Z,78.00
2019-05-13T04:01:24.686Z,78.00
2019-05-13T04:03:53.625Z,78.00
2019-05-13T04:06:23.654Z,78.20
2019-05-13T04:08:54.091Z,78.30
2019-05-13T04:11:23.281Z,78.50
2019-05-13T04:13:53.031Z,78.40
2019-05-13T04:16:23.738Z,78.40
2019-05-13T04:18:53.598Z,78.30
2019-05-13T04:21:23.254Z,78.40
2019-05-13T04:23:53.275Z,78.20
2019-05-13T04:26:23.886Z,78.20
2019-05-13T04:28:53.071Z,78.30
2019-05-13T04:31:22.916Z,78.20
2019-05-13T04:33:53.447Z,78.00
2019-05-13T04:36:23.807Z,78.10
2019-05-13T04:38:53.208Z,78.00
2019-05-13T04:41:23.127Z,78.10
2019-05-13T04:43:53.877Z,78.10
2019-05-13T04:46:23.545Z,78.10
2019-05-13T04:48:53.791Z,78.20
2019-05-13T04:51:23.097Z,78.10
2019-05-13T04:53:56.853Z,78.00
2019-05-13T04:56:23.185Z,78.00
2019-05-13T04:58:52.978Z,78.00
2019-05-13T05:02:15.373Z,78.00
2019-05-13T05:04:52.642Z,78.00
2019-05-13T05:07:32.785Z,77.90
2019-05-13T05:10:29.280Z,77.90
2019-05-13T05:13:12.858Z,77.70
2019-05-13T05:16:12.842Z,77.80
2019-05-13T05:19:18.112Z,77.90
2019-05-13T05:22:06.296Z,77.90
2019-05-13T05:24:53.039Z,77.70
2019-05-13T05:27:59.087Z,77.70
2019-05-13T05:31:06.375Z,77.60
2019-05-13T05:34:07.503Z,77.50
2019-05-13T05:37:16.539Z,77.60
2019-05-13T05:39:47.471Z,77.70
2019-05-13T05:42:17.263Z,77.80
2019-05-13T05:44:47.151Z,78.10
2019-05-13T05:47:17.332Z,77.90
2019-05-13T05:49:47.316Z,77.90
2019-05-13T05:52:21.285Z,78.00
2019-05-13T05:54:53.027Z,77.80
2019-05-13T05:57:24.088Z,77.70
2019-05-13T05:59:55.827Z,77.70
2019-05-13T06:02:27.371Z,78.00
2019-05-13T06:04:57.605Z,77.90
2019-05-13T06:07:26.809Z,77.80
2019-05-13T06:09:55.983Z,77.90
2019-05-13T06:12:25.834Z,77.90
2019-05-13T06:14:54.758Z,77.80
2019-05-13T06:17:24.055Z,77.80
2019-05-13T06:19:53.206Z,77.80
2019-05-13T06:22:22.073Z,77.90
2019-05-13T06:24:52.219Z,77.80
2019-05-13T06:27:22.198Z,77.50
2019-05-13T06:29:52.931Z,77.50
2019-05-13T06:32:26.244Z,77.20
2019-05-13T06:34:53.252Z,77.40
2019-05-13T06:37:22.361Z,77.30
2019-05-13T06:39:51.766Z,77.90
2019-05-13T06:42:22.240Z,77.00
2019-05-13T06:44:51.731Z,76.80
2019-05-13T06:47:21.899Z,76.80
2019-05-13T06:49:51.705Z,76.50
2019-05-13T06:52:21.265Z,76.40
2019-05-13T06:54:52.018Z,76.20
2019-05-13T06:57:22.010Z,76.20
2019-05-13T06:59:52.375Z,76.10
2019-05-13T07:02:21.756Z,76.10
2019-05-13T07:04:51.889Z,75.90
2019-05-13T07:07:21.942Z,75.90
2019-05-13T07:09:51.862Z,76.00
2019-05-13T07:12:21.881Z,75.80
2019-05-13T07:14:51.863Z,75.80
2019-05-13T07:17:22.338Z,75.60
2019-05-13T07:19:51.895Z,75.40
2019-05-13T07:22:23.045Z,75.30
2019-05-13T07:24:51.942Z,75.20
2019-05-13T07:27:22.965Z,75.40
2019-05-13T07:29:55.496Z,75.40
2019-05-13T07:32:23.164Z,75.40
2019-05-13T07:34:53.228Z,75.20
2019-05-13T07:37:23.176Z,75.20
2019-05-13T07:39:53.159Z,75.20
2019-05-13T07:42:22.368Z,75.30
2019-05-13T07:44:52.154Z,75.10
2019-05-13T07:47:22.315Z,75.00
2019-05-13T07:49:51.650Z,73.60
2019-05-13T07:52:22.719Z,73.40
2019-05-13T07:54:52.050Z,73.40
2019-05-13T07:57:21.604Z,73.30
2019-05-13T07:59:52.420Z,72.70
2019-05-13T08:02:21.734Z,72.90
2019-05-13T08:04:53.013Z,73.00
2019-05-13T08:07:22.645Z,73.80
2019-05-13T08:09:55.319Z,73.10
2019-05-13T08:12:22.475Z,72.90
2019-05-13T08:14:52.141Z,72.80
2019-05-13T08:17:22.455Z,72.80
2019-05-13T08:19:52.146Z,72.60
2019-05-13T08:22:22.135Z,72.40
2019-05-13T08:24:54.144Z,72.40
2019-05-13T08:27:30.194Z,72.10
2019-05-13T08:29:52.829Z,71.80
2019-05-13T08:32:22.197Z,71.60
2019-05-13T08:34:54.301Z,71.70
2019-05-13T08:37:21.926Z,71.70
2019-05-13T08:39:52.209Z,71.90
2019-05-13T08:42:23.573Z,71.70
2019-05-13T08:44:52.594Z,71.40
2019-05-13T08:47:22.454Z,71.50
2019-05-13T08:49:52.231Z,71.50
2019-05-13T08:52:22.064Z,71.50
2019-05-13T08:54:52.393Z,71.10
2019-05-13T08:57:22.125Z,70.80
2019-05-13T08:59:51.790Z,70.70
2019-05-13T09:02:22.130Z,70.10
2019-05-13T09:04:51.644Z,69.90
2019-05-13T09:07:24.037Z,69.90
2019-05-13T09:09:51.651Z,69.50
2019-05-13T09:12:29.630Z,69.20
2019-05-13T09:14:52.390Z,69.10
2019-05-13T09:17:21.929Z,68.90
2019-05-13T09:19:52.004Z,69.10
2019-05-13T09:22:21.438Z,68.80
2019-05-13T09:24:53.030Z,68.50
2019-05-13T09:27:22.590Z,67.50
2019-05-13T09:29:51.931Z,68.20
2019-05-13T09:32:21.604Z,68.10
2019-05-13T09:34:52.440Z,68.20
2019-05-13T09:37:22.595Z,68.30
2019-05-13T09:40:14.111Z,67.70
2019-05-13T09:42:49.054Z,67.30
2019-05-13T09:45:14.489Z,67.10
2019-05-13T09:47:43.410Z,66.80
2019-05-13T09:50:28.036Z,66.80
2019-05-13T09:52:43.076Z,66.80
2019-05-13T09:55:25.283Z,66.50
2019-05-13T09:57:42.723Z,66.40
2019-05-13T10:00:12.312Z,66.10
2019-05-13T10:02:42.650Z,66.80
2019-05-13T10:05:11.855Z,65.60
2019-05-13T10:07:42.512Z,65.90
2019-05-13T10:10:12.153Z,65.40
2019-05-13T10:12:42.437Z,65.40
2019-05-13T10:15:12.707Z,65.60
2019-05-13T10:17:42.942Z,65.30
2019-05-13T10:20:12.485Z,64.80
2019-05-13T10:22:42.072Z,64.60
2019-05-13T10:25:14.573Z,64.50
2019-05-13T10:27:43.549Z,64.40
2019-05-13T10:30:13.156Z,64.10
2019-05-13T10:32:42.718Z,63.70
2019-05-13T10:35:12.389Z,63.50
2019-05-13T10:37:42.064Z,63.80
2019-05-13T10:40:12.618Z,63.70
2019-05-13T10:42:43.286Z,63.30
2019-05-13T10:45:13.053Z,63.50
2019-05-13T10:47:42.438Z,62.90
2019-05-13T10:50:12.123Z,63.10
2019-05-13T10:52:42.761Z,63.20
2019-05-13T10:55:13.106Z,62.40
2019-05-13T10:57:42.515Z,61.30
2019-05-13T11:00:12.406Z,61.80
2019-05-13T11:02:42.373Z,62.20
2019-05-13T11:05:12.462Z,61.50
2019-05-13T11:07:42.093Z,61.80
2019-05-13T11:10:13.336Z,61.90
2019-05-13T11:12:42.230Z,61.90
2019-05-13T11:15:11.154Z,61.40
2019-05-13T11:17:42.463Z,60.70
2019-05-13T11:20:12.435Z,60.00
2019-05-13T11:22:41.550Z,59.60
2019-05-13T11:25:12.457Z,59.60
2019-05-13T11:27:42.134Z,59.60
2019-05-13T11:30:11.484Z,58.80
2019-05-13T11:32:42.729Z,58.60
2019-05-13T11:37:43.537Z,58.80
2019-05-13T11:40:13.220Z,59.10
2019-05-13T11:42:42.318Z,59.10
2019-05-13T11:45:12.502Z,58.60
2019-05-13T11:47:41.692Z,57.70
2019-05-13T11:50:11.583Z,57.10
2019-05-13T11:52:42.519Z,57.90
2019-05-13T11:55:13.011Z,57.50
2019-05-13T11:57:44.387Z,57.30
2019-05-13T12:00:13.983Z,57.60
2019-05-13T12:02:49.810Z,57.90
2019-05-13T12:05:13.590Z,58.00
2019-05-13T12:07:42.795Z,56.90
2019-05-13T12:10:12.501Z,56.90
2019-05-13T12:12:44.008Z,57.10
2019-05-13T12:17:43.843Z,57.20
2019-05-13T12:20:13.093Z,56.30
2019-05-13T12:22:42.762Z,56.80
2019-05-13T12:25:13.725Z,56.40
2019-05-13T12:27:42.691Z,56.30
2019-05-13T12:30:12.555Z,56.10
2019-05-13T12:32:43.812Z,56.40
2019-05-13T12:35:13.323Z,56.30
2019-05-13T12:37:43.198Z,56.10
2019-05-13T12:40:12.442Z,55.00
2019-05-13T12:42:46.268Z,55.30
2019-05-13T12:45:14.717Z,55.70
2019-05-13T12:47:44.212Z,54.40
2019-05-13T12:50:14.185Z,55.20
2019-05-13T12:52:43.986Z,55.90
2019-05-13T12:55:14.120Z,54.90
2019-05-13T12:57:43.153Z,54.60
2019-05-13T13:00:13.092Z,53.70
2019-05-13T13:02:49.985Z,54.30
2019-05-13T13:05:19.952Z,53.70
2019-05-13T13:07:44.095Z,54.10
2019-05-13T13:10:14.588Z,54.50
2019-05-13T13:12:43.727Z,53.10
2019-05-13T13:15:35.940Z,54.00
2019-05-13T13:17:43.494Z,53.40
2019-05-13T13:20:15.154Z,53.60
2019-05-13T13:22:43.871Z,54.00
2019-05-13T13:25:14.743Z,53.60
2019-05-13T13:28:15.328Z,53.40
2019-05-13T13:30:15.333Z,53.80
2019-05-13T13:32:45.613Z,53.30
2019-05-13T13:35:15.165Z,53.20
2019-05-13T13:37:45.985Z,53.60
2019-05-13T13:40:24.430Z,54.70
2019-05-13T13:42:45.842Z,54.20
2019-05-13T13:45:15.496Z,53.80
2019-05-13T13:47:45.807Z,53.90
2019-05-13T13:50:14.918Z,54.30
2019-05-13T13:52:45.745Z,52.80
2019-05-13T13:55:15.795Z,51.90
2019-05-13T13:57:45.286Z,52.00
2019-05-13T14:00:31.631Z,52.10
2019-05-13T14:02:45.069Z,52.50
2019-05-13T14:05:14.020Z,51.20
2019-05-13T14:06:28.718Z,58.50
2019-05-13T14:07:03.004Z,57.10
2019-05-13T14:07:42.849Z,52.10
2019-05-13T14:10:11.982Z,52.10
2019-05-13T14:12:41.719Z,53.30
2019-05-13T14:15:10.955Z,52.80
2019-05-13T14:17:41.563Z,52.30
2019-05-13T14:20:11.346Z,52.80
2019-05-13T14:22:41.899Z,52.80
2019-05-13T14:25:11.653Z,51.70
2019-05-13T14:27:42.044Z,52.50
2019-05-13T14:30:12.789Z,51.40
2019-05-13T14:32:42.455Z,50.00
2019-05-13T14:35:12.333Z,52.20
2019-05-13T14:37:41.252Z,52.60
2019-05-13T14:40:12.113Z,52.70
2019-05-13T14:42:42.634Z,52.50
2019-05-13T14:45:20.521Z,52.40
2019-05-13T14:47:48.539Z,52.10
2019-05-13T14:50:17.706Z,51.80
2019-05-13T14:52:46.556Z,52.00
2019-05-13T14:55:15.408Z,52.30
2019-05-13T14:57:44.321Z,52.20
2019-05-13T15:00:13.267Z,51.40
2019-05-13T15:02:42.528Z,51.00
2019-05-13T15:05:12.161Z,51.50
2019-05-13T15:07:42.158Z,50.90
2019-05-13T15:10:11.383Z,51.40
2019-05-13T15:12:41.556Z,51.90
2019-05-13T15:15:12.708Z,51.80
2019-05-13T15:17:42.579Z,50.80
2019-05-13T15:20:12.375Z,49.30
2019-05-13T15:22:42.416Z,50.20
2019-05-13T15:25:12.586Z,50.70
2019-05-13T15:27:42.141Z,50.60
2019-05-13T15:30:17.879Z,50.40
2019-05-13T15:32:43.617Z,50.30
2019-05-13T15:35:13.379Z,50.40
2019-05-13T15:37:42.338Z,49.90
2019-05-13T15:40:11.808Z,50.30
2019-05-13T15:42:40.695Z,48.60
2019-05-13T15:45:12.405Z,48.30
2019-05-13T15:47:40.858Z,49.50
2019-05-13T15:50:12.326Z,50.10
2019-05-13T15:52:43.237Z,49.10
2019-05-13T15:55:37.398Z,49.40
2019-05-13T15:57:42.869Z,50.10
2019-05-13T16:00:12.813Z,50.10
2019-05-13T16:02:42.304Z,50.00
2019-05-13T16:05:12.163Z,49.70
2019-05-13T16:07:42.011Z,49.10
2019-05-13T16:10:11.552Z,48.30
2019-05-13T16:12:40.415Z,48.80
2019-05-13T16:15:15.303Z,49.10
2019-05-13T16:17:44.490Z,48.00
2019-05-13T16:20:11.993Z,47.60
2019-05-13T16:22:42.155Z,47.60
2019-05-13T16:25:11.732Z,47.80
2019-05-13T16:27:41.689Z,48.10
2019-05-13T16:30:11.930Z,48.60
2019-05-13T16:32:42.475Z,48.50
2019-05-13T16:35:13.695Z,48.50
2019-05-13T16:37:42.494Z,48.80
2019-05-13T16:40:13.187Z,47.60
2019-05-13T16:42:42.336Z,46.70
2019-05-13T16:45:12.590Z,46.50
2019-05-13T16:47:56.934Z,46.50
2019-05-13T16:50:13.461Z,46.60
2019-05-13T16:52:42.981Z,45.80
2019-05-13T16:55:12.887Z,45.90
2019-05-13T16:57:42.476Z,47.00
2019-05-13T17:00:13.657Z,47.50
2019-05-13T17:02:42.976Z,47.40
2019-05-13T17:05:12.270Z,47.60
2019-05-13T17:07:42.160Z,47.50
2019-05-13T17:10:13.929Z,47.50
2019-05-13T17:12:43.097Z,48.00
2019-05-13T17:15:12.430Z,47.60
2019-05-13T17:17:41.255Z,47.90
2019-05-13T17:20:12.538Z,48.00
2019-05-13T17:22:42.396Z,48.10
2019-05-13T17:25:12.584Z,47.90
2019-05-13T17:27:41.768Z,48.20
2019-05-13T17:30:11.512Z,48.30
2019-05-13T17:32:40.845Z,48.20
2019-05-13T17:35:11.677Z,48.10
2019-05-13T17:37:42.178Z,48.10
2019-05-13T17:40:14.533Z,48.60
2019-05-13T17:42:43.338Z,48.40
2019-05-13T17:45:12.846Z,49.00
2019-05-13T17:47:42.053Z,49.20
2019-05-13T17:50:14.976Z,48.80
2019-05-13T17:52:44.005Z,49.40
2019-05-13T17:55:13.059Z,49.50
2019-05-13T17:57:41.969Z,49.80
2019-05-13T18:00:11.900Z,49.70
2019-05-13T18:02:41.977Z,49.30
2019-05-13T18:05:12.198Z,49.40
2019-05-13T18:07:41.937Z,50.10
2019-05-13T18:10:14.449Z,49.70
2019-05-13T18:12:43.627Z,49.80
2019-05-13T18:15:13.678Z,50.00
2019-05-13T18:17:42.762Z,50.10
2019-05-13T18:20:11.809Z,50.10
2019-05-13T18:22:41.994Z,50.70
2019-05-13T18:25:12.171Z,50.40
2019-05-13T18:27:41.736Z,50.10
2019-05-13T18:30:11.566Z,50.50
2019-05-13T18:32:40.484Z,50.40
2019-05-13T18:35:12.049Z,50.60
2019-05-13T18:37:41.959Z,50.80
2019-05-13T18:40:11.684Z,50.90
2019-05-13T18:42:42.107Z,51.00
2019-05-13T18:45:11.862Z,51.10
2019-05-13T18:47:41.065Z,51.20
2019-05-13T18:50:11.617Z,51.30
2019-05-13T18:52:41.995Z,51.50
2019-05-13T18:55:12.488Z,51.60
2019-05-13T18:57:41.794Z,51.90
2019-05-13T19:00:12.614Z,51.90
2019-05-13T19:02:41.640Z,51.90
2019-05-13T19:05:11.946Z,52.00
2019-05-13T19:07:41.801Z,52.10
2019-05-13T19:10:11.605Z,52.40
2019-05-13T19:12:42.138Z,52.40
2019-05-13T19:15:11.539Z,52.50
2019-05-13T19:17:41.492Z,52.60
2019-05-13T19:20:12.385Z,52.60
2019-05-13T19:22:41.500Z,52.70
2019-05-13T19:25:11.986Z,52.90
2019-05-13T19:27:41.572Z,53.00
2019-05-13T19:30:12.110Z,53.10
2019-05-13T19:32:41.819Z,53.30
2019-05-13T19:35:11.752Z,54.00
2019-05-13T19:37:42.427Z,53.50
2019-05-13T19:40:12.996Z,53.50
2019-05-13T19:42:42.254Z,53.70
2019-05-13T19:45:11.434Z,53.70
2019-05-13T19:47:41.777Z,53.80
2019-05-13T19:50:12.308Z,53.80
2019-05-13T19:52:41.581Z,54.00
2019-05-13T19:55:12.117Z,54.10
2019-05-13T19:57:42.553Z,54.30
2019-05-13T20:00:14.160Z,54.30
2019-05-13T20:02:42.613Z,54.50
2019-05-13T20:05:11.568Z,54.60
2019-05-13T20:07:41.976Z,54.60
2019-05-13T20:10:12.033Z,54.70
2019-05-13T20:12:42.015Z,54.80
2019-05-13T20:15:11.831Z,55.00
2019-05-13T20:17:41.659Z,55.10
2019-05-13T20:20:12.431Z,55.20
2019-05-13T20:22:42.169Z,55.20
2019-05-13T20:25:13.116Z,55.30
2019-05-13T20:27:42.279Z,55.40
2019-05-13T20:30:11.505Z,55.50
2019-05-13T20:32:40.741Z,55.50
2019-05-13T20:35:11.497Z,55.70
2019-05-13T20:37:40.440Z,55.80
2019-05-13T20:40:11.513Z,55.90
2019-05-13T20:42:41.394Z,56.10
2019-05-13T20:45:14.254Z,56.20
2019-05-13T20:47:43.119Z,57.10
2019-05-13T20:50:12.645Z,57.20
2019-05-13T20:52:42.093Z,57.20
2019-05-13T20:55:11.355Z,57.30
2019-05-13T20:57:41.735Z,57.50
2019-05-13T21:00:11.721Z,57.50
2019-05-13T21:02:41.814Z,57.60
2019-05-13T21:05:12.163Z,57.70
2019-05-13T21:07:41.736Z,57.70
2019-05-13T21:10:12.164Z,57.80
2019-05-13T21:12:42.041Z,57.90
2019-05-13T21:15:12.934Z,58.00
2019-05-13T21:17:42.099Z,58.10
2019-05-13T21:20:19.631Z,58.10
2019-05-13T21:22:42.482Z,58.10
2019-05-13T21:25:12.118Z,58.30
2019-05-13T21:27:42.087Z,58.40
2019-05-13T21:30:11.945Z,58.40
2019-05-13T21:32:41.389Z,58.60
2019-05-13T21:35:11.860Z,58.70
2019-05-13T21:37:40.905Z,58.70
2019-05-13T21:40:11.237Z,58.80
2019-05-13T21:42:41.962Z,58.90
2019-05-13T21:45:11.682Z,58.70
2019-05-13T21:47:40.523Z,59.00
2019-05-13T21:50:11.568Z,59.00
2019-05-13T21:52:41.818Z,59.10
2019-05-13T21:55:11.482Z,59.10
2019-05-13T21:57:41.529Z,59.20
2019-05-13T22:00:19.055Z,59.20
2019-05-13T22:02:47.857Z,59.10
2019-05-13T22:05:16.825Z,59.10
2019-05-13T22:07:45.704Z,59.30
2019-05-13T22:10:17.206Z,59.30
2019-05-13T22:12:46.056Z,59.40
2019-05-13T22:15:14.989Z,59.50
2019-05-13T22:17:44.087Z,59.50
2019-05-13T22:20:13.247Z,59.90
2019-05-13T22:22:42.582Z,59.60
2019-05-13T22:25:14.081Z,59.50
2019-05-13T22:27:42.930Z,59.70
2019-05-13T22:30:12.594Z,59.60
2019-05-13T22:32:41.856Z,59.70
2019-05-13T22:35:11.273Z,59.70
2019-05-13T22:37:40.439Z,59.80
2019-05-13T22:40:11.220Z,59.80
2019-05-13T22:42:41.497Z,60.00
2019-05-13T22:45:11.646Z,59.90
2019-05-13T22:47:41.734Z,60.00
2019-05-13T22:50:11.602Z,60.00
2019-05-13T22:52:41.963Z,60.00
2019-05-13T22:55:11.663Z,60.20
2019-05-13T22:57:42.005Z,60.00
2019-05-13T23:00:11.871Z,60.10
2019-05-13T23:02:42.192Z,60.30
2019-05-13T23:05:11.659Z,60.30
2019-05-13T23:07:40.632Z,60.40
2019-05-13T23:10:11.786Z,60.30
2019-05-13T23:12:42.075Z,60.30
2019-05-13T23:15:11.904Z,60.50
2019-05-13T23:17:41.551Z,60.40
2019-05-13T23:20:10.677Z,60.50
2019-05-13T23:22:41.497Z,60.70
2019-05-13T23:25:12.166Z,60.60
2019-05-13T23:27:41.531Z,60.80
2019-05-13T23:30:11.638Z,60.90
2019-05-13T23:32:40.778Z,61.10
2019-05-13T23:35:11.133Z,61.00
2019-05-13T23:37:41.672Z,61.10
2019-05-13T23:40:11.840Z,61.10
2019-05-13T23:42:41.054Z,61.20
2019-05-13T23:45:11.457Z,61.20
2019-05-13T23:47:41.689Z,61.50
2019-05-13T23:50:12.470Z,61.60
2019-05-13T23:52:42.814Z,61.60
2019-05-13T23:55:11.807Z,61.70
2019-05-13T23:57:42.111Z,61.70
